Time;durP1;ratioP1;P1;durP2;ratioP2;P2;SDS_P1;SDS_P2;PMS_P1;PMS_P2;Temp;Humidity;BMP_temperature;BMP_pressure;BME280_temperature;BME280_humidity;BME280_pressure;Samples;Min_cycle;Max_cycle;Signal;HPM_P1;HPM_P2
2023/01/02 00:00:33;;;;;;;22.00;10.88;;;;;;;;;;4951107;28;20022;-68
2023/01/02 00:03:00;;;;;;;17.35;9.70;;;;;;;;;;4941792;28;20145;-68
2023/01/02 00:05:26;;;;;;;23.35;10.73;;;;;;;;;;4966234;28;20373;-68
2023/01/02 00:07:52;;;;;;;20.90;10.75;;;;;;;;;;4950544;28;20037;-68
2023/01/02 00:10:18;;;;;;;18.63;8.95;;;;;;;;;;4944306;28;20795;-68
2023/01/02 00:12:44;;;;;;;18.63;8.10;;;;;;;;;;4949989;28;20036;-68
2023/01/02 00:15:11;;;;;;;17.25;7.88;;;;;;;;;;4945859;28;20655;-68
2023/01/02 00:17:37;;;;;;;20.20;7.65;;;;;;;;;;4949503;28;20027;-68
2023/01/02 00:20:03;;;;;;;13.88;6.30;;;;;;;;;;4947054;28;20037;-68
2023/01/02 00:22:29;;;;;;;16.67;7.15;;;;;;;;;;4946440;28;20110;-68
2023/01/02 00:24:55;;;;;;;18.85;6.47;;;;;;;;;;4947954;28;20531;-68
2023/01/02 00:27:21;;;;;;;18.10;6.13;;;;;;;;;;4952458;28;20018;-68
2023/01/02 00:29:48;;;;;;;13.90;5.97;;;;;;;;;;4949764;28;20621;-70
2023/01/02 00:32:14;;;;;;;14.23;6.20;;;;;;;;;;4943857;28;20092;-68
2023/01/02 00:34:40;;;;;;;15.88;5.75;;;;;;;;;;4949463;28;20109;-68
2023/01/02 00:37:06;;;;;;;16.85;6.88;;;;;;;;;;4945872;28;20160;-67
2023/01/02 00:39:32;;;;;;;14.60;5.40;;;;;;;;;;4946229;28;20584;-67
2023/01/02 00:41:58;;;;;;;15.68;6.30;;;;;;;;;;4942626;28;20981;-67
2023/01/02 00:44:25;;;;;;;17.05;5.53;;;;;;;;;;4947788;28;20432;-68
2023/01/02 00:46:51;;;;;;;14.85;5.85;;;;;;;;;;4949022;28;20052;-67
2023/01/02 00:49:17;;;;;;;16.17;6.40;;;;;;;;;;4944798;28;20055;-67
2023/01/02 00:51:43;;;;;;;16.60;6.53;;;;;;;;;;4947753;28;20060;-67
2023/01/02 00:54:09;;;;;;;17.02;6.65;;;;;;;;;;4944218;28;20408;-67
2023/01/02 00:56:35;;;;;;;17.20;6.53;;;;;;;;;;4949058;28;20409;-67
2023/01/02 00:59:01;;;;;;;16.70;6.28;;;;;;;;;;4945437;28;20066;-68
2023/01/02 01:01:29;;;;;;;19.88;6.15;;;;;;;;;;4945906;28;20061;-67
2023/01/02 01:03:55;;;;;;;17.23;5.72;;;;;;;;;;4940782;28;20614;-68
2023/01/02 01:06:22;;;;;;;19.13;6.05;;;;;;;;;;4947953;28;20072;-68
2023/01/02 01:08:48;;;;;;;19.67;7.07;;;;;;;;;;4948278;28;20929;-67
2023/01/02 01:11:16;;;;;;;13.18;5.85;;;;;;;;;;4942897;28;20911;-68
2023/01/02 01:13:42;;;;;;;15.73;5.07;;;;;;;;;;4948165;28;20030;-69
2023/01/02 01:16:10;;;;;;;15.30;5.38;;;;;;;;;;4941968;28;20034;-69
2023/01/02 01:18:37;;;;;;;16.15;4.72;;;;;;;;;;4945921;28;20455;-67
2023/01/02 01:21:10;;;;;;;17.10;5.50;;;;;;;;;;4940496;28;20030;-67
2023/01/02 01:23:36;;;;;;;19.55;5.10;;;;;;;;;;4945162;28;20057;-68
2023/01/02 01:26:03;;;;;;;13.25;4.65;;;;;;;;;;4942602;28;20466;-68
2023/01/02 01:28:30;;;;;;;14.65;4.68;;;;;;;;;;4948544;28;20034;-69
2023/01/02 01:31:00;;;;;;;12.85;4.70;;;;;;;;;;4941955;28;20086;-68
2023/01/02 01:33:26;;;;;;;15.23;4.90;;;;;;;;;;4948603;28;20026;-68
2023/01/02 01:35:52;;;;;;;14.45;4.60;;;;;;;;;;4950367;28;20034;-68
2023/01/02 01:38:18;;;;;;;14.70;5.28;;;;;;;;;;4946162;28;20206;-68
2023/01/02 01:40:44;;;;;;;17.92;5.72;;;;;;;;;;4953524;28;20042;-68
2023/01/02 01:43:14;;;;;;;15.98;4.90;;;;;;;;;;4948522;28;20539;-67
2023/01/02 01:45:43;;;;;;;15.82;5.38;;;;;;;;;;4949488;28;20026;-68
2023/01/02 01:48:12;;;;;;;13.93;5.03;;;;;;;;;;4949089;28;20034;-68
2023/01/02 01:50:38;;;;;;;15.02;6.10;;;;;;;;;;4951861;28;20536;-68
2023/01/02 01:53:04;;;;;;;;;;;;;;;;;;4949573;28;20141;-68
2023/01/02 01:55:32;;;;;;;17.65;5.30;;;;;;;;;;4950944;28;20283;-68
2023/01/02 01:58:01;;;;;;;15.40;5.03;;;;;;;;;;4945645;28;20776;-68
2023/01/02 02:00:28;;;;;;;12.55;5.50;;;;;;;;;;4949516;28;20034;-68
2023/01/02 02:02:59;;;;;;;18.30;5.65;;;;;;;;;;4953638;28;20689;-67
2023/01/02 02:05:27;;;;;;;14.43;5.20;;;;;;;;;;4956145;28;20691;-68
2023/01/02 02:07:59;;;;;;;13.90;5.47;;;;;;;;;;4951788;28;20038;-68
2023/01/02 02:10:25;;;;;;;14.90;5.75;;;;;;;;;;4950236;28;20421;-68
2023/01/02 02:12:51;;;;;;;16.63;5.88;;;;;;;;;;4950616;28;20038;-67
2023/01/02 02:15:20;;;;;;;15.73;5.50;;;;;;;;;;4945819;28;20683;-68
2023/01/02 02:18:04;;;;;;;16.25;5.22;;;;;;;;;;4950573;28;20034;-68
2023/01/02 02:20:37;;;;;;;13.52;4.70;;;;;;;;;;4952591;28;20046;-68
2023/01/02 02:23:22;;;;;;;16.02;5.25;;;;;;;;;;4948815;28;20041;-68
2023/01/02 02:26:07;;;;;;;13.68;5.15;;;;;;;;;;4951441;28;20267;-68
2023/01/02 02:28:58;;;;;;;17.73;6.22;;;;;;;;;;4957384;28;20073;-68
2023/01/02 02:31:43;;;;;;;12.68;5.05;;;;;;;;;;4955832;28;20096;-68
2023/01/02 02:34:15;;;;;;;15.77;5.50;;;;;;;;;;4952691;28;20511;-68
2023/01/02 02:36:47;;;;;;;18.05;6.38;;;;;;;;;;4956699;28;20758;-68
2023/01/02 02:39:40;;;;;;;15.07;6.35;;;;;;;;;;4953284;28;20030;-68
2023/01/02 02:42:29;;;;;;;15.05;6.25;;;;;;;;;;4950832;28;20527;-68
2023/01/02 02:45:03;;;;;;;14.98;5.57;;;;;;;;;;4950087;28;20141;-69
2023/01/02 02:47:34;;;;;;;17.15;6.25;;;;;;;;;;4953990;28;20128;-68
2023/01/02 02:50:08;;;;;;;17.13;6.18;;;;;;;;;;4949057;28;20057;-68
2023/01/02 02:52:38;;;;;;;13.98;6.35;;;;;;;;;;4955839;28;20081;-68
2023/01/02 02:55:08;;;;;;;24.60;8.18;;;;;;;;;;4951770;28;20030;-68
2023/01/02 02:57:36;;;;;;;19.60;7.97;;;;;;;;;;4954638;28;20100;-68
2023/01/02 03:00:04;;;;;;;21.58;9.68;;;;;;;;;;4948681;28;20157;-68
2023/01/02 03:02:30;;;;;;;17.67;9.25;;;;;;;;;;4954450;28;20105;-68
2023/01/02 03:04:58;;;;;;;23.77;11.23;;;;;;;;;;4952597;28;20121;-68
2023/01/02 03:07:34;;;;;;;29.00;12.93;;;;;;;;;;4953082;28;20112;-68
2023/01/02 03:10:06;;;;;;;26.00;12.75;;;;;;;;;;4952401;28;20121;-68
2023/01/02 03:12:59;;;;;;;27.08;13.88;;;;;;;;;;4954009;28;20038;-68
2023/01/02 03:15:30;;;;;;;26.80;12.68;;;;;;;;;;4948853;28;20057;-68
2023/01/02 03:18:13;;;;;;;22.90;11.32;;;;;;;;;;4953111;28;20038;-68
2023/01/02 03:20:52;;;;;;;20.52;9.52;;;;;;;;;;4954915;28;20752;-68
2023/01/02 03:23:20;;;;;;;20.73;8.18;;;;;;;;;;4952175;28;20529;-68
2023/01/02 03:25:47;;;;;;;18.52;7.97;;;;;;;;;;4956089;28;20054;-68
2023/01/02 03:28:15;;;;;;;17.52;8.45;;;;;;;;;;4950703;28;20461;-68
2023/01/02 03:30:43;;;;;;;16.48;7.80;;;;;;;;;;4956622;28;20038;-68
2023/01/02 03:33:29;;;;;;;16.70;7.00;;;;;;;;;;4953607;28;20033;-68
2023/01/02 03:36:05;;;;;;;15.93;6.15;;;;;;;;;;4952542;28;21265;-68
2023/01/02 03:38:35;;;;;;;16.73;5.63;;;;;;;;;;4955446;28;20442;-68
2023/01/02 03:41:09;;;;;;;11.90;4.85;;;;;;;;;;4950589;28;20034;-68
2023/01/02 03:43:36;;;;;;;18.35;5.25;;;;;;;;;;4954054;28;20035;-69
2023/01/02 03:46:12;;;;;;;14.05;4.40;;;;;;;;;;4949368;28;20535;-67
2023/01/02 03:48:45;;;;;;;16.75;4.88;;;;;;;;;;4958327;28;20131;-67
2023/01/02 03:51:11;;;;;;;16.20;4.50;;;;;;;;;;4950406;28;20038;-67
2023/01/02 03:53:39;;;;;;;15.98;4.88;;;;;;;;;;4957160;28;20562;-67
2023/01/02 03:56:09;;;;;;;11.57;4.35;;;;;;;;;;4950704;28;20030;-69
2023/01/02 03:58:41;;;;;;;20.23;4.50;;;;;;;;;;4955972;28;20814;-68
2023/01/02 04:01:11;;;;;;;15.38;4.25;;;;;;;;;;4948012;28;20540;-68
2023/01/02 04:03:45;;;;;;;16.45;4.40;;;;;;;;;;4956105;28;20447;-68
2023/01/02 04:06:16;;;;;;;17.65;4.60;;;;;;;;;;4951219;28;20065;-68
2023/01/02 04:08:48;;;;;;;11.55;4.03;;;;;;;;;;4952278;28;20093;-69
2023/01/02 04:11:16;;;;;;;15.50;4.45;;;;;;;;;;4951699;28;20082;-69
2023/01/02 04:13:44;;;;;;;15.73;4.57;;;;;;;;;;4953010;28;20031;-68
2023/01/02 04:16:12;;;;;;;16.50;3.92;;;;;;;;;;4952434;28;20442;-68
2023/01/02 04:18:40;;;;;;;15.93;4.03;;;;;;;;;;4955304;28;20077;-68
2023/01/02 04:21:08;;;;;;;14.50;3.60;;;;;;;;;;4952702;28;20368;-68
2023/01/02 04:23:39;;;;;;;16.10;4.32;;;;;;;;;;4954902;28;20109;-68
2023/01/02 04:26:09;;;;;;;15.13;4.15;;;;;;;;;;4950671;28;20567;-68
2023/01/02 04:28:36;;;;;;;13.68;4.35;;;;;;;;;;4953466;28;20044;-68
2023/01/02 04:31:02;;;;;;;;;;;;;;;;;;4949125;28;20129;-67
2023/01/02 04:33:29;;;;;;;12.88;4.07;;;;;;;;;;4955120;28;20461;-67
2023/01/02 04:35:55;;;;;;;13.27;3.78;;;;;;;;;;4948989;28;20042;-68
2023/01/02 04:38:21;;;;;;;11.85;3.40;;;;;;;;;;4954726;28;20035;-67
2023/01/02 04:40:48;;;;;;;13.32;3.70;;;;;;;;;;4951101;28;20034;-68
2023/01/02 04:43:18;;;;;;;13.95;3.78;;;;;;;;;;4951311;28;20141;-69
2023/01/02 04:45:44;;;;;;;12.00;3.60;;;;;;;;;;4954571;28;20022;-69
2023/01/02 04:48:10;;;;;;;11.45;3.55;;;;;;;;;;4950527;28;20030;-69
2023/01/02 04:50:36;;;;;;;13.90;3.83;;;;;;;;;;4951647;28;20026;-69
2023/01/02 04:53:02;;;;;;;16.50;3.80;;;;;;;;;;4951841;28;20037;-68
2023/01/02 04:55:28;;;;;;;12.50;3.88;;;;;;;;;;4952091;28;20052;-68
2023/01/02 04:57:56;;;;;;;16.17;3.92;;;;;;;;;;4952267;28;20053;-67
2023/01/02 05:00:22;;;;;;;12.73;3.72;;;;;;;;;;4954225;28;20347;-67
2023/01/02 05:02:48;;;;;;;15.82;3.83;;;;;;;;;;4952402;28;20106;-68
2023/01/02 05:05:15;;;;;;;16.42;3.85;;;;;;;;;;4948938;28;22267;-68
2023/01/02 05:07:41;;;;;;;12.15;3.95;;;;;;;;;;4951910;28;20065;-67
2023/01/02 05:10:07;;;;;;;12.10;3.83;;;;;;;;;;4949843;28;20042;-69
2023/01/02 05:12:34;;;;;;;;;;;;;;;;;;4954340;28;20069;-67
2023/01/02 05:15:00;;;;;;;13.23;3.90;;;;;;;;;;4951017;28;19920;-69
2023/01/02 05:17:26;;;;;;;10.90;4.03;;;;;;;;;;4953646;28;20080;-69
2023/01/02 05:19:52;;;;;;;11.75;3.90;;;;;;;;;;4948711;28;20038;-67
2023/01/02 05:25:03;;;;;;;11.00;3.70;;;;;;;;;;4950486;28;20108;-69
2023/01/02 05:27:29;;;;;;;;;;;;;;;;;;4955651;28;20025;-67
2023/01/02 05:29:55;;;;;;;13.95;3.67;;;;;;;;;;4949899;28;20369;-69
2023/01/02 05:32:22;;;;;;;11.57;3.95;;;;;;;;;;4954228;28;20038;-68
2023/01/02 05:34:48;;;;;;;15.38;4.35;;;;;;;;;;4954675;28;20389;-68
2023/01/02 05:37:14;;;;;;;14.63;4.20;;;;;;;;;;4954245;28;20057;-69
2023/01/02 05:39:40;;;;;;;10.77;3.72;;;;;;;;;;4954793;28;20038;-69
2023/01/02 05:42:06;;;;;;;13.23;3.90;;;;;;;;;;4957264;28;20538;-69
2023/01/02 05:44:32;;;;;;;14.55;4.13;;;;;;;;;;4956103;28;20037;-69
2023/01/02 05:46:58;;;;;;;15.65;4.50;;;;;;;;;;4953624;28;20465;-69
2023/01/02 05:49:24;;;;;;;16.05;3.80;;;;;;;;;;4958982;28;20378;-69
2023/01/02 05:51:51;;;;;;;13.82;4.32;;;;;;;;;;4952073;28;20027;-68
2023/01/02 05:54:17;;;;;;;16.13;4.15;;;;;;;;;;4954324;28;20385;-68
2023/01/02 05:56:43;;;;;;;16.05;4.22;;;;;;;;;;4959264;28;20097;-69
2023/01/02 05:59:09;;;;;;;20.60;4.00;;;;;;;;;;4952221;28;20770;-67
2023/01/02 06:01:35;;;;;;;17.23;3.90;;;;;;;;;;4956293;28;20762;-67
2023/01/02 06:04:01;;;;;;;14.63;3.83;;;;;;;;;;4953902;28;20282;-67
2023/01/02 06:06:38;;;;;;;12.15;4.10;;;;;;;;;;4955725;28;20031;-67
2023/01/02 06:09:05;;;;;;;12.50;3.58;;;;;;;;;;4954209;28;20570;-67
2023/01/02 06:11:31;;;;;;;12.68;3.45;;;;;;;;;;4956563;28;20120;-67
2023/01/02 06:13:57;;;;;;;;;;;;;;;;;;4952568;28;20389;-69
2023/01/02 06:16:24;;;;;;;16.08;4.50;;;;;;;;;;4955157;28;19914;-67
2023/01/02 06:18:51;;;;;;;13.18;3.97;;;;;;;;;;4956870;28;20201;-69
2023/01/02 06:21:18;;;;;;;14.07;3.90;;;;;;;;;;4954378;28;20241;-69
2023/01/02 06:23:44;;;;;;;15.75;3.88;;;;;;;;;;4956456;28;20332;-69
2023/01/02 06:26:10;;;;;;;;;;;;;;;;;;4951843;28;20034;-69
2023/01/02 06:28:36;;;;;;;13.25;4.00;;;;;;;;;;4957489;28;20398;-69
2023/01/02 06:31:04;;;;;;;11.02;3.58;;;;;;;;;;4953572;28;20050;-68
2023/01/02 06:33:31;;;;;;;14.32;3.95;;;;;;;;;;4957843;28;20091;-68
2023/01/02 06:35:57;;;;;;;;;;;;;;;;;;4952377;28;21145;-67
2023/01/02 06:38:23;;;;;;;15.30;3.88;;;;;;;;;;4956441;28;20340;-67
2023/01/02 06:40:56;;;;;;;13.85;4.18;;;;;;;;;;4957220;28;20038;-68
2023/01/02 06:43:22;;;;;;;11.77;4.03;;;;;;;;;;4952931;28;20503;-67
2023/01/02 06:45:48;;;;;;;11.43;3.90;;;;;;;;;;4954143;28;20058;-67
2023/01/02 06:48:15;;;;;;;14.88;4.53;;;;;;;;;;4951820;28;20055;-69
2023/01/02 06:50:41;;;;;;;14.93;4.82;;;;;;;;;;4954275;28;20022;-69
2023/01/02 06:53:07;;;;;;;15.10;5.03;;;;;;;;;;4952120;28;20029;-69
2023/01/02 06:55:34;;;;;;;22.60;4.28;;;;;;;;;;4952681;28;20109;-68
2023/01/02 06:58:00;;;;;;;15.70;4.38;;;;;;;;;;4950442;28;20023;-69
2023/01/02 07:00:26;;;;;;;12.85;3.95;;;;;;;;;;4956929;28;20559;-68
2023/01/02 07:02:52;;;;;;;15.00;3.78;;;;;;;;;;4956007;28;20023;-68
2023/01/02 07:05:18;;;;;;;11.93;4.13;;;;;;;;;;4954215;28;20089;-67
2023/01/02 07:07:44;;;;;;;14.00;4.28;;;;;;;;;;4956141;28;20038;-68
2023/01/02 07:10:10;;;;;;;13.52;4.18;;;;;;;;;;4953115;28;20458;-68
2023/01/02 07:12:37;;;;;;;16.52;4.53;;;;;;;;;;4955865;28;20597;-68
2023/01/02 07:15:05;;;;;;;15.32;4.68;;;;;;;;;;4953353;28;20042;-69
2023/01/02 07:17:31;;;;;;;12.98;4.70;;;;;;;;;;4955480;28;20112;-67
2023/01/02 07:19:58;;;;;;;14.18;4.63;;;;;;;;;;4952744;28;20781;-68
2023/01/02 07:22:25;;;;;;;15.25;5.07;;;;;;;;;;4955068;28;20022;-67
2023/01/02 07:24:51;;;;;;;15.07;4.60;;;;;;;;;;4954965;28;20041;-69
2023/01/02 07:27:17;;;;;;;13.32;4.90;;;;;;;;;;4950168;28;20030;-67
2023/01/02 07:29:43;;;;;;;16.88;4.70;;;;;;;;;;4972023;28;20393;-68
2023/01/02 07:32:09;;;;;;;12.68;4.45;;;;;;;;;;4951788;28;20027;-67
2023/01/02 07:34:35;;;;;;;17.15;5.25;;;;;;;;;;4954893;28;20061;-68
2023/01/02 07:37:01;;;;;;;17.63;5.13;;;;;;;;;;4950447;28;20042;-67
2023/01/02 07:39:28;;;;;;;16.02;5.38;;;;;;;;;;4954536;28;20049;-67
2023/01/02 07:41:54;;;;;;;13.48;5.10;;;;;;;;;;4952439;28;20287;-68
2023/01/02 07:44:20;;;;;;;;;;;;;;;;;;4952080;28;20031;-67
2023/01/02 07:46:46;;;;;;;16.38;6.13;;;;;;;;;;4956183;28;20344;-68
2023/01/02 07:49:13;;;;;;;15.60;5.80;;;;;;;;;;4954818;28;20794;-68
2023/01/02 07:51:39;;;;;;;19.35;6.28;;;;;;;;;;4950847;28;21199;-67
2023/01/02 07:54:05;;;;;;;16.58;6.13;;;;;;;;;;4949650;28;20030;-67
2023/01/02 07:56:31;;;;;;;16.00;5.53;;;;;;;;;;4954055;28;20109;-68
2023/01/02 07:58:57;;;;;;;16.38;5.35;;;;;;;;;;4951564;28;20295;-68
2023/01/02 08:01:23;;;;;;;19.17;6.72;;;;;;;;;;4952630;28;20141;-67
2023/01/02 08:03:50;;;;;;;17.35;5.97;;;;;;;;;;4953286;28;20045;-69
2023/01/02 08:06:16;;;;;;;19.92;6.07;;;;;;;;;;4948259;28;20034;-69
2023/01/02 08:08:43;;;;;;;19.90;6.28;;;;;;;;;;4951533;28;20049;-67
2023/01/02 08:11:13;;;;;;;23.20;6.25;;;;;;;;;;4948586;28;20042;-67
2023/01/02 08:13:39;;;;;;;21.85;5.82;;;;;;;;;;4948479;28;20980;-69
2023/01/02 08:16:10;;;;;;;21.83;5.82;;;;;;;;;;4948511;28;20777;-67
2023/01/02 08:18:36;;;;;;;19.73;6.20;;;;;;;;;;4950750;28;20039;-69
2023/01/02 08:21:02;;;;;;;16.27;6.03;;;;;;;;;;4947398;28;20050;-69
2023/01/02 08:23:28;;;;;;;20.90;8.98;;;;;;;;;;4949862;28;20081;-67
2023/01/02 08:25:58;;;;;;;25.48;9.50;;;;;;;;;;4950911;28;20839;-68
2023/01/02 08:28:24;;;;;;;21.65;8.63;;;;;;;;;;4951097;28;20034;-68
2023/01/02 08:30:50;;;;;;;22.75;8.02;;;;;;;;;;4953899;28;20065;-68
2023/01/02 08:33:16;;;;;;;15.90;6.72;;;;;;;;;;4946325;28;20109;-68
2023/01/02 08:35:42;;;;;;;22.80;7.95;;;;;;;;;;4948647;28;20117;-67
2023/01/02 08:38:09;;;;;;;25.40;7.90;;;;;;;;;;4942652;28;20785;-68
2023/01/02 08:40:35;;;;;;;21.20;7.60;;;;;;;;;;4946429;28;20105;-69
2023/01/02 08:43:01;;;;;;;20.67;7.43;;;;;;;;;;4947487;28;20064;-69
2023/01/02 08:45:27;;;;;;;19.67;6.97;;;;;;;;;;4949017;28;20023;-69
2023/01/02 08:47:53;;;;;;;16.08;6.53;;;;;;;;;;4947463;28;20058;-67
2023/01/02 08:50:20;;;;;;;19.70;6.00;;;;;;;;;;4947899;28;20046;-68
2023/01/02 08:52:46;;;;;;;18.95;6.55;;;;;;;;;;4949820;28;20077;-68
2023/01/02 08:55:13;;;;;;;29.15;8.82;;;;;;;;;;4942520;28;20573;-68
2023/01/02 08:57:39;;;;;;;24.27;9.75;;;;;;;;;;4949397;28;20339;-68
2023/01/02 09:00:05;;;;;;;30.85;13.38;;;;;;;;;;4947482;28;20518;-68
2023/01/02 09:02:32;;;;;;;39.22;19.20;;;;;;;;;;4945986;28;20037;-68
2023/01/02 09:04:58;;;;;;;46.53;23.38;;;;;;;;;;4947060;28;20629;-68
2023/01/02 09:07:24;;;;;;;52.22;27.20;;;;;;;;;;4946563;28;20034;-68
2023/01/02 09:09:51;;;;;;;54.00;27.33;;;;;;;;;;4965354;28;20026;-68
2023/01/02 09:12:17;;;;;;;43.65;27.10;;;;;;;;;;4947795;28;20101;-69
2023/01/02 09:14:43;;;;;;;;;;;;;;;;;;4953036;28;20030;-67
2023/01/02 09:17:09;;;;;;;57.72;32.22;;;;;;;;;;4947761;28;20315;-68
2023/01/02 09:19:35;;;;;;;53.17;30.77;;;;;;;;;;4949239;28;20101;-67
2023/01/02 09:22:01;;;;;;;;;;;;;;;;;;4946747;28;20030;-69
2023/01/02 09:24:28;;;;;;;43.47;27.17;;;;;;;;;;4949002;28;20362;-69
2023/01/02 09:26:54;;;;;;;44.15;26.05;;;;;;;;;;4951317;28;20041;-69
2023/01/02 09:29:20;;;;;;;53.97;30.38;;;;;;;;;;4948340;28;20060;-69
2023/01/02 09:31:46;;;;;;;;;;;;;;;;;;4966839;28;20132;-68
2023/01/02 09:34:12;;;;;;;67.47;36.05;;;;;;;;;;4946855;28;19920;-68
2023/01/02 09:36:39;;;;;;;61.92;32.80;;;;;;;;;;4949916;28;20355;-68
2023/01/02 09:39:05;;;;;;;59.85;32.58;;;;;;;;;;4946497;28;20072;-68
2023/01/02 09:41:34;;;;;;;60.30;33.55;;;;;;;;;;4951533;28;20031;-70
2023/01/02 09:44:00;;;;;;;61.17;34.33;;;;;;;;;;4945956;28;20035;-69
2023/01/02 09:46:26;;;;;;;;;;;;;;;;;;4950887;28;20232;-68
2023/01/02 09:48:52;;;;;;;57.75;33.33;;;;;;;;;;4949228;28;20018;-68
2023/01/02 09:51:19;;;;;;;72.13;40.25;;;;;;;;;;4947547;28;20066;-68
2023/01/02 09:53:45;;;;;;;72.60;38.25;;;;;;;;;;4951238;28;20034;-67
2023/01/02 09:56:21;;;;;;;77.10;39.10;;;;;;;;;;4946794;28;21082;-68
2023/01/02 09:58:59;;;;;;;75.40;39.58;;;;;;;;;;4951777;28;20085;-69
2023/01/02 10:01:28;;;;;;;69.43;38.45;;;;;;;;;;4949472;28;20034;-69
2023/01/02 10:04:05;;;;;;;78.32;40.80;;;;;;;;;;4951035;28;20026;-69
2023/01/02 10:06:40;;;;;;;76.47;39.58;;;;;;;;;;4949269;28;20567;-69
2023/01/02 10:09:10;;;;;;;73.70;38.85;;;;;;;;;;4945530;28;20034;-68
2023/01/02 10:11:39;;;;;;;79.38;39.63;;;;;;;;;;4948854;28;20532;-68
2023/01/02 10:14:05;;;;;;;84.32;38.83;;;;;;;;;;4944664;28;20602;-68
2023/01/02 10:16:32;;;;;;;82.43;37.05;;;;;;;;;;4947662;28;20088;-68
2023/01/02 10:19:00;;;;;;;63.58;33.72;;;;;;;;;;4947950;28;20144;-70
2023/01/02 10:21:36;;;;;;;89.40;36.90;;;;;;;;;;4947916;28;20578;-68
2023/01/02 10:24:22;;;;;;;72.93;35.72;;;;;;;;;;4948909;28;20120;-68
2023/01/02 10:26:50;;;;;;;64.28;32.38;;;;;;;;;;4952004;28;20032;-69
2023/01/02 10:29:24;;;;;;;53.80;29.08;;;;;;;;;;4950160;28;20541;-69
2023/01/02 10:32:10;;;;;;;63.55;30.48;;;;;;;;;;4953563;28;20556;-69
2023/01/02 10:34:54;;;;;;;64.80;31.98;;;;;;;;;;4951010;28;20038;-68
2023/01/02 10:37:21;;;;;;;67.85;33.35;;;;;;;;;;4959577;28;20503;-69
2023/01/02 10:39:49;;;;;;;57.33;29.63;;;;;;;;;;4951975;28;20095;-69
2023/01/02 10:42:15;;;;;;;43.65;24.50;;;;;;;;;;4949105;28;21986;-69
2023/01/02 10:44:42;;;;;;;55.90;28.10;;;;;;;;;;4950667;28;20041;-69
2023/01/02 10:47:13;;;;;;;41.13;23.35;;;;;;;;;;4950397;28;20802;-69
2023/01/02 10:49:40;;;;;;;44.42;23.05;;;;;;;;;;4949082;28;20037;-68
2023/01/02 10:52:11;;;;;;;39.13;20.77;;;;;;;;;;4950194;28;20132;-69
2023/01/02 10:55:03;;;;;;;43.40;22.27;;;;;;;;;;4952785;28;21794;-69
2023/01/02 10:57:32;;;;;;;41.28;21.40;;;;;;;;;;4949008;28;20034;-67
2023/01/02 10:59:59;;;;;;;41.88;22.08;;;;;;;;;;4949013;28;20038;-68
2023/01/02 11:02:28;;;;;;;37.38;18.88;;;;;;;;;;4951358;28;20027;-68
2023/01/02 11:04:54;;;;;;;28.77;15.88;;;;;;;;;;4946924;28;20598;-69
2023/01/02 11:07:24;;;;;;;26.98;13.27;;;;;;;;;;4951959;28;20097;-69
2023/01/02 11:09:55;;;;;;;29.63;14.85;;;;;;;;;;4950813;28;20030;-69
2023/01/02 11:12:21;;;;;;;29.15;14.60;;;;;;;;;;4948537;28;20591;-69
2023/01/02 11:14:48;;;;;;;22.02;11.60;;;;;;;;;;4951220;28;20030;-69
2023/01/02 11:17:15;;;;;;;26.23;11.52;;;;;;;;;;4946869;28;20740;-69
2023/01/02 11:19:46;;;;;;;21.75;9.73;;;;;;;;;;4950585;28;20125;-69
2023/01/02 11:22:13;;;;;;;22.38;10.00;;;;;;;;;;4946634;28;20034;-69
2023/01/02 11:24:57;;;;;;;25.08;11.13;;;;;;;;;;4950057;28;20403;-69
2023/01/02 11:27:29;;;;;;;22.35;11.02;;;;;;;;;;4955580;28;20389;-69
2023/01/02 11:29:55;;;;;;;24.25;13.50;;;;;;;;;;4949642;28;20044;-69
2023/01/02 11:32:29;;;;;;;21.52;10.05;;;;;;;;;;4953837;28;20060;-69
2023/01/02 11:35:01;;;;;;;20.10;10.25;;;;;;;;;;4947497;28;20070;-69
2023/01/02 11:37:28;;;;;;;26.52;12.55;;;;;;;;;;4952362;28;20487;-69
2023/01/02 11:39:57;;;;;;;22.88;11.82;;;;;;;;;;4952782;28;20447;-69
2023/01/02 11:45:10;;;;;;;28.30;12.90;;;;;;;;;;4948019;28;20049;-70
2023/01/02 11:47:56;;;;;;;22.35;12.45;;;;;;;;;;4954130;28;20050;-69
2023/01/02 11:50:23;;;;;;;21.75;10.45;;;;;;;;;;4951672;28;20361;-68
2023/01/02 11:52:58;;;;;;;21.85;10.35;;;;;;;;;;4952588;28;20061;-69
2023/01/02 11:55:43;;;;;;;17.80;8.35;;;;;;;;;;4947992;28;20066;-68
2023/01/02 11:58:09;;;;;;;17.88;7.80;;;;;;;;;;4939366;28;20045;-70
2023/01/02 12:00:38;;;;;;;17.30;7.43;;;;;;;;;;4949821;28;20477;-69
2023/01/02 12:03:13;;;;;;;16.48;7.43;;;;;;;;;;4948769;28;20535;-69
2023/01/02 12:05:49;;;;;;;18.17;8.20;;;;;;;;;;4945926;28;20023;-69
2023/01/02 12:08:22;;;;;;;18.95;8.70;;;;;;;;;;4947921;28;20885;-68
2023/01/02 12:11:07;;;;;;;15.20;6.88;;;;;;;;;;4950493;28;20923;-68
2023/01/02 12:14:08;;;;;;;17.08;6.75;;;;;;;;;;4948973;28;20062;-71
2023/01/02 12:16:48;;;;;;;15.88;6.20;;;;;;;;;;4948336;28;20546;-70
2023/01/02 12:19:20;;;;;;;14.40;5.97;;;;;;;;;;4944482;28;20410;-69
2023/01/02 12:21:58;;;;;;;13.57;5.68;;;;;;;;;;4948765;28;20034;-70
2023/01/02 12:24:30;;;;;;;25.45;16.13;;;;;;;;;;4948619;28;20352;-70
2023/01/02 12:27:09;;;;;;;24.45;14.27;;;;;;;;;;4944769;28;20109;-69
2023/01/02 12:29:38;;;;;;;15.35;7.85;;;;;;;;;;4948384;28;20909;-70
2023/01/02 12:32:06;;;;;;;16.98;8.38;;;;;;;;;;4942526;28;20053;-70
2023/01/02 12:34:39;;;;;;;15.82;7.50;;;;;;;;;;4945806;28;20372;-70
2023/01/02 12:37:05;;;;;;;16.40;6.00;;;;;;;;;;4943407;28;20043;-69
2023/01/02 12:39:31;;;;;;;16.10;5.15;;;;;;;;;;4928107;28;20480;-70
2023/01/02 12:42:04;;;;;;;17.42;5.88;;;;;;;;;;4941208;28;20532;-70
2023/01/02 12:44:30;;;;;;;14.98;5.57;;;;;;;;;;4944930;28;20049;-70
2023/01/02 12:47:15;;;;;;;17.85;5.75;;;;;;;;;;4942069;28;20691;-68
2023/01/02 12:50:00;;;;;;;14.30;5.68;;;;;;;;;;4943102;28;20058;-69
2023/01/02 12:52:32;;;;;;;18.08;6.72;;;;;;;;;;4922501;28;20242;-68
2023/01/02 12:54:58;;;;;;;14.05;6.28;;;;;;;;;;4919323;28;20766;-69
2023/01/02 12:57:27;;;;;;;20.30;8.45;;;;;;;;;;4923802;28;20157;-70
2023/01/02 13:00:01;;;;;;;20.40;9.25;;;;;;;;;;4923138;28;20063;-67
2023/01/02 13:02:41;;;;;;;19.30;8.43;;;;;;;;;;4923630;28;20038;-68
2023/01/02 13:05:11;;;;;;;20.77;9.95;;;;;;;;;;4919938;28;20023;-68
2023/01/02 13:07:59;;;;;;;23.65;10.73;;;;;;;;;;4921445;28;20027;-71
2023/01/02 13:10:27;;;;;;;21.00;8.23;;;;;;;;;;4941693;28;20043;-68
2023/01/02 13:12:55;;;;;;;18.90;9.10;;;;;;;;;;4922849;28;20055;-68
2023/01/02 13:15:24;;;;;;;20.67;9.23;;;;;;;;;;4920917;28;20027;-68
2023/01/02 13:17:57;;;;;;;18.65;8.88;;;;;;;;;;4922487;28;20034;-68
2023/01/02 13:20:35;;;;;;;19.42;8.40;;;;;;;;;;4924234;28;20528;-68
2023/01/02 13:23:04;;;;;;;17.42;7.88;;;;;;;;;;4919157;28;20093;-68
2023/01/02 13:25:32;;;;;;;15.00;6.93;;;;;;;;;;4924122;28;20030;-68
2023/01/02 13:27:59;;;;;;;13.85;6.13;;;;;;;;;;4921205;28;20043;-68
2023/01/02 13:30:34;;;;;;;12.27;4.95;;;;;;;;;;4924413;28;20643;-68
2023/01/02 13:33:01;;;;;;;14.25;4.72;;;;;;;;;;4921120;28;20595;-67
2023/01/02 13:35:28;;;;;;;10.88;4.10;;;;;;;;;;4922334;28;20555;-68
2023/01/02 13:37:55;;;;;;;14.05;4.20;;;;;;;;;;4919029;28;20105;-68
2023/01/02 13:40:25;;;;;;;11.88;4.10;;;;;;;;;;4917157;28;20066;-67
2023/01/02 13:43:02;;;;;;;13.98;4.32;;;;;;;;;;4920038;28;21096;-68
2023/01/02 13:45:49;;;;;;;14.05;4.05;;;;;;;;;;4923639;28;20023;-68
2023/01/02 13:48:31;;;;;;;14.38;4.40;;;;;;;;;;4922788;28;20043;-68
2023/01/02 13:51:13;;;;;;;13.88;3.65;;;;;;;;;;4919400;28;20548;-68
2023/01/02 13:53:46;;;;;;;13.18;4.25;;;;;;;;;;4923437;28;20401;-70
2023/01/02 13:56:14;;;;;;;10.40;3.30;;;;;;;;;;4921443;28;20375;-69
2023/01/02 13:58:42;;;;;;;15.43;3.55;;;;;;;;;;4926691;28;20054;-68
2023/01/02 14:01:21;;;;;;;12.30;3.40;;;;;;;;;;4922624;28;20556;-68
2023/01/02 14:04:18;;;;;;;9.48;3.05;;;;;;;;;;4928582;28;20038;-68
2023/01/02 14:06:48;;;;;;;10.85;3.28;;;;;;;;;;4925073;28;20034;-69
2023/01/02 14:09:17;;;;;;;15.18;3.80;;;;;;;;;;4925518;28;20037;-68
2023/01/02 14:11:52;;;;;;;12.85;4.00;;;;;;;;;;4924801;28;20023;-68
2023/01/02 14:14:37;;;;;;;16.45;3.83;;;;;;;;;;4918895;28;20081;-69
2023/01/02 14:17:25;;;;;;;11.55;3.88;;;;;;;;;;4922548;28;20157;-69
2023/01/02 14:20:10;;;;;;;9.43;2.90;;;;;;;;;;4924450;28;20081;-69
2023/01/02 14:22:44;;;;;;;11.38;2.58;;;;;;;;;;4925029;28;20038;-70
2023/01/02 14:25:11;;;;;;;11.48;3.22;;;;;;;;;;4920558;28;20026;-68
2023/01/02 14:27:37;;;;;;;13.30;3.80;;;;;;;;;;4923798;28;20101;-68
2023/01/02 14:30:06;;;;;;;12.98;3.50;;;;;;;;;;4919956;28;20035;-68
2023/01/02 14:32:37;;;;;;;12.88;4.32;;;;;;;;;;4921816;28;20054;-68
2023/01/02 14:35:26;;;;;;;15.80;4.30;;;;;;;;;;4921564;28;20118;-68
2023/01/02 14:38:05;;;;;;;15.60;5.03;;;;;;;;;;4932847;28;20650;-68
2023/01/02 14:40:36;;;;;;;13.02;4.20;;;;;;;;;;4937068;28;20054;-69
2023/01/02 14:43:29;;;;;;;10.75;3.65;;;;;;;;;;4910992;28;20936;-69
2023/01/02 14:45:58;;;;;;;13.07;3.63;;;;;;;;;;4927108;28;20936;-70
2023/01/02 14:48:30;;;;;;;14.75;4.18;;;;;;;;;;4915276;28;20490;-68
2023/01/02 14:51:01;;;;;;;11.88;4.25;;;;;;;;;;4910985;28;20039;-70